sensor_id;sensor_type;location;lat;lon;timestamp;P1;durP1;ratioP1;P2;durP2;ratioP2
13244;SDS011;6689;53.400;12.486;2023-04-25T00:01:46;7.45;;;3.55;;
13244;SDS011;6689;53.400;12.486;2023-04-25T00:04:14;10.02;;;3.45;;
13244;SDS011;6689;53.400;12.486;2023-04-25T00:06:43;6.40;;;2.83;;
13244;SDS011;6689;53.400;12.486;2023-04-25T00:09:10;7.55;;;3.05;;
13244;SDS011;6689;53.400;12.486;2023-04-25T00:11:38;5.60;;;3.00;;
13244;SDS011;6689;53.400;12.486;2023-04-25T00:14:06;4.38;;;2.58;;
13244;SDS011;6689;53.400;12.486;2023-04-25T00:16:35;5.88;;;2.67;;
13244;SDS011;6689;53.400;12.486;2023-04-25T00:19:02;5.95;;;2.72;;
13244;SDS011;6689;53.400;12.486;2023-04-25T00:21:32;8.95;;;3.10;;
13244;SDS011;6689;53.400;12.486;2023-04-25T00:24:00;6.00;;;2.67;;
13244;SDS011;6689;53.400;12.486;2023-04-25T00:26:27;13.05;;;4.40;;
13244;SDS011;6689;53.400;12.486;2023-04-25T00:28:55;4.60;;;2.70;;
13244;SDS011;6689;53.400;12.486;2023-04-25T00:31:22;5.55;;;2.45;;
13244;SDS011;6689;53.400;12.486;2023-04-25T00:33:50;7.55;;;2.75;;
13244;SDS011;6689;53.400;12.486;2023-04-25T00:36:18;8.38;;;3.20;;
13244;SDS011;6689;53.400;12.486;2023-04-25T00:38:45;6.43;;;2.80;;
13244;SDS011;6689;53.400;12.486;2023-04-25T00:41:14;9.60;;;3.75;;
13244;SDS011;6689;53.400;12.486;2023-04-25T00:43:42;11.80;;;3.10;;
13244;SDS011;6689;53.400;12.486;2023-04-25T00:46:10;5.20;;;2.88;;
13244;SDS011;6689;53.400;12.486;2023-04-25T00:48:38;6.57;;;2.90;;
13244;SDS011;6689;53.400;12.486;2023-04-25T00:51:08;7.80;;;3.78;;
13244;SDS011;6689;53.400;12.486;2023-04-25T00:53:38;6.93;;;2.80;;
13244;SDS011;6689;53.400;12.486;2023-04-25T00:56:06;5.05;;;2.72;;
13244;SDS011;6689;53.400;12.486;2023-04-25T00:58:34;5.05;;;2.92;;
13244;SDS011;6689;53.400;12.486;2023-04-25T01:01:02;4.47;;;3.47;;
13244;SDS011;6689;53.400;12.486;2023-04-25T01:03:30;6.40;;;2.90;;
13244;SDS011;6689;53.400;12.486;2023-04-25T01:06:00;6.63;;;3.65;;
13244;SDS011;6689;53.400;12.486;2023-04-25T01:08:28;8.15;;;2.92;;
13244;SDS011;6689;53.400;12.486;2023-04-25T01:10:56;5.97;;;3.20;;
13244;SDS011;6689;53.400;12.486;2023-04-25T01:13:25;7.32;;;3.85;;
13244;SDS011;6689;53.400;12.486;2023-04-25T01:15:54;4.97;;;2.90;;
13244;SDS011;6689;53.400;12.486;2023-04-25T01:18:21;6.45;;;3.20;;
13244;SDS011;6689;53.400;12.486;2023-04-25T01:20:49;7.38;;;3.20;;
13244;SDS011;6689;53.400;12.486;2023-04-25T01:23:19;6.18;;;3.22;;
13244;SDS011;6689;53.400;12.486;2023-04-25T01:25:48;7.18;;;3.70;;
13244;SDS011;6689;53.400;12.486;2023-04-25T01:28:16;5.70;;;2.80;;
13244;SDS011;6689;53.400;12.486;2023-04-25T01:30:43;8.20;;;3.42;;
13244;SDS011;6689;53.400;12.486;2023-04-25T01:33:10;5.22;;;3.00;;
13244;SDS011;6689;53.400;12.486;2023-04-25T01:35:40;6.90;;;2.97;;
13244;SDS011;6689;53.400;12.486;2023-04-25T01:38:08;6.43;;;3.45;;
13244;SDS011;6689;53.400;12.486;2023-04-25T01:40:38;8.82;;;3.10;;
13244;SDS011;6689;53.400;12.486;2023-04-25T01:43:07;9.90;;;3.45;;
13244;SDS011;6689;53.400;12.486;2023-04-25T01:45:37;7.47;;;2.92;;
13244;SDS011;6689;53.400;12.486;2023-04-25T01:48:06;7.70;;;2.92;;
13244;SDS011;6689;53.400;12.486;2023-04-25T01:50:33;9.23;;;3.33;;
13244;SDS011;6689;53.400;12.486;2023-04-25T01:53:01;7.35;;;3.35;;
13244;SDS011;6689;53.400;12.486;2023-04-25T01:55:28;14.00;;;3.72;;
13244;SDS011;6689;53.400;12.486;2023-04-25T01:57:57;6.95;;;3.72;;
13244;SDS011;6689;53.400;12.486;2023-04-25T02:00:25;9.25;;;2.90;;
13244;SDS011;6689;53.400;12.486;2023-04-25T02:02:52;7.68;;;3.58;;
13244;SDS011;6689;53.400;12.486;2023-04-25T02:05:21;8.98;;;3.15;;
13244;SDS011;6689;53.400;12.486;2023-04-25T02:07:48;8.25;;;3.22;;
13244;SDS011;6689;53.400;12.486;2023-04-25T02:10:15;7.65;;;2.88;;
13244;SDS011;6689;53.400;12.486;2023-04-25T02:12:42;7.63;;;3.47;;
13244;SDS011;6689;53.400;12.486;2023-04-25T02:15:11;6.40;;;4.18;;
13244;SDS011;6689;53.400;12.486;2023-04-25T02:17:39;5.97;;;3.25;;
13244;SDS011;6689;53.400;12.486;2023-04-25T02:20:06;10.57;;;3.53;;
13244;SDS011;6689;53.400;12.486;2023-04-25T02:22:34;8.25;;;4.13;;
13244;SDS011;6689;53.400;12.486;2023-04-25T02:25:01;6.25;;;3.63;;
13244;SDS011;6689;53.400;12.486;2023-04-25T02:27:30;7.47;;;3.90;;
13244;SDS011;6689;53.400;12.486;2023-04-25T02:29:57;6.82;;;3.72;;
13244;SDS011;6689;53.400;12.486;2023-04-25T02:32:26;7.53;;;3.80;;
13244;SDS011;6689;53.400;12.486;2023-04-25T02:34:53;7.13;;;3.38;;
13244;SDS011;6689;53.400;12.486;2023-04-25T02:37:20;11.85;;;4.30;;
13244;SDS011;6689;53.400;12.486;2023-04-25T02:39:47;7.88;;;3.95;;
13244;SDS011;6689;53.400;12.486;2023-04-25T02:42:15;9.15;;;3.92;;
13244;SDS011;6689;53.400;12.486;2023-04-25T02:44:42;7.82;;;4.85;;
13244;SDS011;6689;53.400;12.486;2023-04-25T02:47:11;8.38;;;4.50;;
13244;SDS011;6689;53.400;12.486;2023-04-25T02:49:39;8.45;;;4.70;;
13244;SDS011;6689;53.400;12.486;2023-04-25T02:52:06;5.90;;;4.13;;
13244;SDS011;6689;53.400;12.486;2023-04-25T02:54:34;5.55;;;4.15;;
13244;SDS011;6689;53.400;12.486;2023-04-25T02:57:01;6.57;;;4.70;;
13244;SDS011;6689;53.400;12.486;2023-04-25T02:59:28;7.57;;;4.47;;
13244;SDS011;6689;53.400;12.486;2023-04-25T03:01:56;8.25;;;4.25;;
13244;SDS011;6689;53.400;12.486;2023-04-25T03:04:23;6.35;;;4.35;;
13244;SDS011;6689;53.400;12.486;2023-04-25T03:06:53;7.57;;;4.88;;
13244;SDS011;6689;53.400;12.486;2023-04-25T03:09:20;10.20;;;4.53;;
13244;SDS011;6689;53.400;12.486;2023-04-25T03:11:47;7.72;;;4.47;;
13244;SDS011;6689;53.400;12.486;2023-04-25T03:14:14;13.10;;;5.25;;
13244;SDS011;6689;53.400;12.486;2023-04-25T03:16:42;8.30;;;5.20;;
13244;SDS011;6689;53.400;12.486;2023-04-25T03:19:11;8.50;;;6.07;;
13244;SDS011;6689;53.400;12.486;2023-04-25T03:21:41;9.88;;;5.47;;
13244;SDS011;6689;53.400;12.486;2023-04-25T03:24:10;10.32;;;5.28;;
13244;SDS011;6689;53.400;12.486;2023-04-25T03:26:37;9.65;;;5.47;;
13244;SDS011;6689;53.400;12.486;2023-04-25T03:29:05;9.50;;;5.13;;
13244;SDS011;6689;53.400;12.486;2023-04-25T03:31:32;7.70;;;5.18;;
13244;SDS011;6689;53.400;12.486;2023-04-25T03:33:59;10.52;;;5.20;;
13244;SDS011;6689;53.400;12.486;2023-04-25T03:36:27;9.40;;;5.53;;
13244;SDS011;6689;53.400;12.486;2023-04-25T03:38:54;7.47;;;5.47;;
13244;SDS011;6689;53.400;12.486;2023-04-25T03:41:24;9.77;;;5.18;;
13244;SDS011;6689;53.400;12.486;2023-04-25T03:43:51;8.98;;;5.88;;
13244;SDS011;6689;53.400;12.486;2023-04-25T03:46:18;8.55;;;5.28;;
13244;SDS011;6689;53.400;12.486;2023-04-25T03:48:45;8.48;;;5.15;;
13244;SDS011;6689;53.400;12.486;2023-04-25T03:51:13;7.60;;;5.45;;
13244;SDS011;6689;53.400;12.486;2023-04-25T03:53:40;11.60;;;5.43;;
13244;SDS011;6689;53.400;12.486;2023-04-25T03:56:08;9.80;;;5.22;;
13244;SDS011;6689;53.400;12.486;2023-04-25T03:58:36;10.23;;;5.55;;
13244;SDS011;6689;53.400;12.486;2023-04-25T04:01:04;8.68;;;5.60;;
13244;SDS011;6689;53.400;12.486;2023-04-25T04:03:32;8.43;;;6.25;;
13244;SDS011;6689;53.400;12.486;2023-04-25T04:06:01;10.27;;;5.40;;
13244;SDS011;6689;53.400;12.486;2023-04-25T04:08:29;12.73;;;4.55;;
13244;SDS011;6689;53.400;12.486;2023-04-25T04:10:56;8.27;;;5.25;;
13244;SDS011;6689;53.400;12.486;2023-04-25T04:13:26;6.90;;;4.65;;
13244;SDS011;6689;53.400;12.486;2023-04-25T04:15:55;7.05;;;4.20;;
13244;SDS011;6689;53.400;12.486;2023-04-25T04:18:23;6.28;;;4.32;;
13244;SDS011;6689;53.400;12.486;2023-04-25T04:20:50;7.03;;;4.20;;
13244;SDS011;6689;53.400;12.486;2023-04-25T04:23:18;7.15;;;4.32;;
13244;SDS011;6689;53.400;12.486;2023-04-25T04:25:47;10.02;;;4.40;;
13244;SDS011;6689;53.400;12.486;2023-04-25T04:28:18;12.65;;;3.90;;
13244;SDS011;6689;53.400;12.486;2023-04-25T04:30:45;15.07;;;4.82;;
13244;SDS011;6689;53.400;12.486;2023-04-25T04:33:14;10.80;;;3.67;;
13244;SDS011;6689;53.400;12.486;2023-04-25T04:35:44;12.55;;;3.65;;
13244;SDS011;6689;53.400;12.486;2023-04-25T04:38:11;12.85;;;4.53;;
13244;SDS011;6689;53.400;12.486;2023-04-25T04:40:40;12.65;;;4.32;;
13244;SDS011;6689;53.400;12.486;2023-04-25T04:43:08;9.02;;;3.67;;
13244;SDS011;6689;53.400;12.486;2023-04-25T04:45:42;9.13;;;3.67;;
13244;SDS011;6689;53.400;12.486;2023-04-25T04:48:09;14.65;;;4.20;;
13244;SDS011;6689;53.400;12.486;2023-04-25T04:50:42;11.75;;;3.70;;
13244;SDS011;6689;53.400;12.486;2023-04-25T04:53:10;20.48;;;5.10;;
13244;SDS011;6689;53.400;12.486;2023-04-25T04:55:37;13.85;;;3.75;;
13244;SDS011;6689;53.400;12.486;2023-04-25T04:58:06;7.88;;;4.07;;
13244;SDS011;6689;53.400;12.486;2023-04-25T05:00:33;16.33;;;5.55;;
13244;SDS011;6689;53.400;12.486;2023-04-25T05:03:00;13.20;;;5.00;;
13244;SDS011;6689;53.400;12.486;2023-04-25T05:05:30;17.05;;;4.97;;
13244;SDS011;6689;53.400;12.486;2023-04-25T05:07:59;14.98;;;4.55;;
13244;SDS011;6689;53.400;12.486;2023-04-25T05:10:26;16.60;;;4.88;;
13244;SDS011;6689;53.400;12.486;2023-04-25T05:12:54;14.27;;;4.53;;
13244;SDS011;6689;53.400;12.486;2023-04-25T05:15:21;17.50;;;4.95;;
13244;SDS011;6689;53.400;12.486;2023-04-25T05:17:48;14.13;;;4.43;;
13244;SDS011;6689;53.400;12.486;2023-04-25T05:20:15;13.88;;;4.30;;
13244;SDS011;6689;53.400;12.486;2023-04-25T05:22:46;11.60;;;4.57;;
13244;SDS011;6689;53.400;12.486;2023-04-25T05:25:15;23.30;;;5.15;;
13244;SDS011;6689;53.400;12.486;2023-04-25T05:27:42;16.50;;;4.65;;
13244;SDS011;6689;53.400;12.486;2023-04-25T05:30:12;22.85;;;4.65;;
13244;SDS011;6689;53.400;12.486;2023-04-25T05:32:40;18.40;;;4.13;;
13244;SDS011;6689;53.400;12.486;2023-04-25T05:35:10;24.38;;;5.45;;
13244;SDS011;6689;53.400;12.486;2023-04-25T05:37:42;24.42;;;5.65;;
13244;SDS011;6689;53.400;12.486;2023-04-25T05:40:10;17.48;;;4.03;;
13244;SDS011;6689;53.400;12.486;2023-04-25T05:42:39;16.27;;;4.80;;
13244;SDS011;6689;53.400;12.486;2023-04-25T05:45:06;20.25;;;4.32;;
13244;SDS011;6689;53.400;12.486;2023-04-25T05:47:34;15.68;;;4.85;;
13244;SDS011;6689;53.400;12.486;2023-04-25T05:50:01;23.00;;;6.18;;
13244;SDS011;6689;53.400;12.486;2023-04-25T05:52:29;20.52;;;4.55;;
13244;SDS011;6689;53.400;12.486;2023-04-25T05:54:56;14.88;;;4.72;;
13244;SDS011;6689;53.400;12.486;2023-04-25T05:57:24;15.82;;;4.88;;
13244;SDS011;6689;53.400;12.486;2023-04-25T05:59:54;22.73;;;5.68;;
13244;SDS011;6689;53.400;12.486;2023-04-25T06:02:21;21.67;;;4.55;;
13244;SDS011;6689;53.400;12.486;2023-04-25T06:04:50;13.73;;;3.95;;
13244;SDS011;6689;53.400;12.486;2023-04-25T06:07:18;16.65;;;4.00;;
13244;SDS011;6689;53.400;12.486;2023-04-25T06:09:47;14.95;;;4.15;;
13244;SDS011;6689;53.400;12.486;2023-04-25T06:12:16;17.13;;;4.45;;
13244;SDS011;6689;53.400;12.486;2023-04-25T06:14:45;15.23;;;4.03;;
13244;SDS011;6689;53.400;12.486;2023-04-25T06:17:14;16.92;;;4.10;;
13244;SDS011;6689;53.400;12.486;2023-04-25T06:19:41;13.88;;;3.33;;
13244;SDS011;6689;53.400;12.486;2023-04-25T06:22:08;13.50;;;3.55;;
13244;SDS011;6689;53.400;12.486;2023-04-25T06:24:36;15.07;;;3.88;;
13244;SDS011;6689;53.400;12.486;2023-04-25T06:27:04;19.67;;;3.78;;
13244;SDS011;6689;53.400;12.486;2023-04-25T06:29:31;18.27;;;4.68;;
13244;SDS011;6689;53.400;12.486;2023-04-25T06:31:59;11.27;;;4.40;;
13244;SDS011;6689;53.400;12.486;2023-04-25T06:34:28;11.85;;;3.30;;
13244;SDS011;6689;53.400;12.486;2023-04-25T06:36:55;16.50;;;4.25;;
13244;SDS011;6689;53.400;12.486;2023-04-25T06:39:24;16.00;;;3.78;;
13244;SDS011;6689;53.400;12.486;2023-04-25T06:41:51;12.77;;;4.35;;
13244;SDS011;6689;53.400;12.486;2023-04-25T06:44:21;14.23;;;3.47;;
13244;SDS011;6689;53.400;12.486;2023-04-25T06:46:51;19.10;;;4.88;;
13244;SDS011;6689;53.400;12.486;2023-04-25T06:49:19;15.68;;;4.95;;
13244;SDS011;6689;53.400;12.486;2023-04-25T06:51:49;11.27;;;4.63;;
13244;SDS011;6689;53.400;12.486;2023-04-25T06:54:16;15.32;;;4.88;;
13244;SDS011;6689;53.400;12.486;2023-04-25T06:56:44;14.88;;;4.38;;
13244;SDS011;6689;53.400;12.486;2023-04-25T06:59:11;24.38;;;5.85;;
13244;SDS011;6689;53.400;12.486;2023-04-25T07:01:39;13.13;;;3.30;;
13244;SDS011;6689;53.400;12.486;2023-04-25T07:04:06;12.40;;;4.45;;
13244;SDS011;6689;53.400;12.486;2023-04-25T07:06:33;15.00;;;3.65;;
13244;SDS011;6689;53.400;12.486;2023-04-25T07:09:04;12.82;;;3.22;;
13244;SDS011;6689;53.400;12.486;2023-04-25T07:11:35;18.70;;;3.55;;
13244;SDS011;6689;53.400;12.486;2023-04-25T07:14:02;16.30;;;4.28;;
13244;SDS011;6689;53.400;12.486;2023-04-25T07:16:30;12.65;;;3.67;;
13244;SDS011;6689;53.400;12.486;2023-04-25T07:18:57;12.32;;;3.15;;
13244;SDS011;6689;53.400;12.486;2023-04-25T07:21:25;10.68;;;3.38;;
13244;SDS011;6689;53.400;12.486;2023-04-25T07:23:52;20.35;;;4.10;;
13244;SDS011;6689;53.400;12.486;2023-04-25T07:26:21;14.38;;;3.35;;
13244;SDS011;6689;53.400;12.486;2023-04-25T07:28:48;15.60;;;3.83;;
13244;SDS011;6689;53.400;12.486;2023-04-25T07:31:16;15.30;;;3.63;;
13244;SDS011;6689;53.400;12.486;2023-04-25T07:33:44;12.57;;;3.38;;
13244;SDS011;6689;53.400;12.486;2023-04-25T07:36:12;15.20;;;4.05;;
13244;SDS011;6689;53.400;12.486;2023-04-25T07:38:40;11.07;;;4.15;;
13244;SDS011;6689;53.400;12.486;2023-04-25T07:41:08;18.38;;;4.22;;
13244;SDS011;6689;53.400;12.486;2023-04-25T07:43:36;13.30;;;5.05;;
13244;SDS011;6689;53.400;12.486;2023-04-25T07:46:04;9.57;;;3.55;;
13244;SDS011;6689;53.400;12.486;2023-04-25T07:48:31;10.68;;;3.13;;
13244;SDS011;6689;53.400;12.486;2023-04-25T07:50:59;14.60;;;4.00;;
13244;SDS011;6689;53.400;12.486;2023-04-25T07:53:29;9.35;;;3.35;;
13244;SDS011;6689;53.400;12.486;2023-04-25T07:55:57;10.70;;;3.28;;
13244;SDS011;6689;53.400;12.486;2023-04-25T07:58:24;10.40;;;3.58;;
13244;SDS011;6689;53.400;12.486;2023-04-25T08:00:53;13.10;;;4.10;;
13244;SDS011;6689;53.400;12.486;2023-04-25T08:03:21;9.60;;;3.10;;
13244;SDS011;6689;53.400;12.486;2023-04-25T08:05:48;15.30;;;4.30;;
13244;SDS011;6689;53.400;12.486;2023-04-25T08:08:16;13.50;;;3.53;;
13244;SDS011;6689;53.400;12.486;2023-04-25T08:10:43;5.82;;;2.80;;
13244;SDS011;6689;53.400;12.486;2023-04-25T08:13:10;9.15;;;3.20;;
13244;SDS011;6689;53.400;12.486;2023-04-25T08:15:37;17.90;;;4.00;;
13244;SDS011;6689;53.400;12.486;2023-04-25T08:18:06;13.07;;;3.50;;
13244;SDS011;6689;53.400;12.486;2023-04-25T08:20:34;12.38;;;3.63;;
13244;SDS011;6689;53.400;12.486;2023-04-25T08:23:01;12.25;;;3.38;;
13244;SDS011;6689;53.400;12.486;2023-04-25T08:25:28;15.35;;;4.57;;
13244;SDS011;6689;53.400;12.486;2023-04-25T08:27:56;8.98;;;3.28;;
13244;SDS011;6689;53.400;12.486;2023-04-25T08:30:24;16.90;;;4.32;;
13244;SDS011;6689;53.400;12.486;2023-04-25T08:32:52;12.02;;;2.78;;
13244;SDS011;6689;53.400;12.486;2023-04-25T08:35:20;15.30;;;3.63;;
13244;SDS011;6689;53.400;12.486;2023-04-25T08:37:48;13.18;;;4.03;;
13244;SDS011;6689;53.400;12.486;2023-04-25T08:40:16;10.80;;;2.70;;
13244;SDS011;6689;53.400;12.486;2023-04-25T08:42:44;10.15;;;3.20;;
13244;SDS011;6689;53.400;12.486;2023-04-25T08:45:13;11.50;;;3.03;;
13244;SDS011;6689;53.400;12.486;2023-04-25T08:47:44;10.77;;;3.67;;
13244;SDS011;6689;53.400;12.486;2023-04-25T08:50:15;15.10;;;3.33;;
13244;SDS011;6689;53.400;12.486;2023-04-25T08:52:45;14.02;;;3.33;;
13244;SDS011;6689;53.400;12.486;2023-04-25T08:55:17;11.30;;;3.65;;
13244;SDS011;6689;53.400;12.486;2023-04-25T08:57:54;7.45;;;2.65;;
13244;SDS011;6689;53.400;12.486;2023-04-25T09:00:22;10.77;;;2.95;;
13244;SDS011;6689;53.400;12.486;2023-04-25T09:02:51;11.45;;;3.38;;
13244;SDS011;6689;53.400;12.486;2023-04-25T09:05:24;11.50;;;3.10;;
13244;SDS011;6689;53.400;12.486;2023-04-25T09:07:55;12.60;;;3.55;;
13244;SDS011;6689;53.400;12.486;2023-04-25T09:10:23;9.88;;;3.33;;
13244;SDS011;6689;53.400;12.486;2023-04-25T09:13:01;13.88;;;5.00;;
13244;SDS011;6689;53.400;12.486;2023-04-25T09:15:31;14.23;;;3.17;;
13244;SDS011;6689;53.400;12.486;2023-04-25T09:17:59;9.55;;;2.97;;
13244;SDS011;6689;53.400;12.486;2023-04-25T09:20:26;10.73;;;3.25;;
13244;SDS011;6689;53.400;12.486;2023-04-25T09:23:03;16.75;;;3.60;;
13244;SDS011;6689;53.400;12.486;2023-04-25T09:25:35;13.73;;;2.75;;
13244;SDS011;6689;53.400;12.486;2023-04-25T09:28:05;8.82;;;3.38;;
13244;SDS011;6689;53.400;12.486;2023-04-25T09:30:35;13.68;;;3.33;;
13244;SDS011;6689;53.400;12.486;2023-04-25T09:33:06;11.20;;;3.45;;
13244;SDS011;6689;53.400;12.486;2023-04-25T09:35:37;17.42;;;4.13;;
13244;SDS011;6689;53.400;12.486;2023-04-25T09:38:13;15.23;;;3.72;;
13244;SDS011;6689;53.400;12.486;2023-04-25T09:40:43;10.48;;;3.20;;
13244;SDS011;6689;53.400;12.486;2023-04-25T09:43:18;7.82;;;2.95;;
13244;SDS011;6689;53.400;12.486;2023-04-25T09:45:47;7.53;;;2.78;;
13244;SDS011;6689;53.400;12.486;2023-04-25T09:48:17;12.02;;;3.85;;
13244;SDS011;6689;53.400;12.486;2023-04-25T09:50:45;11.60;;;3.58;;
13244;SDS011;6689;53.400;12.486;2023-04-25T09:53:34;16.10;;;4.15;;
13244;SDS011;6689;53.400;12.486;2023-04-25T09:56:06;11.68;;;3.33;;
13244;SDS011;6689;53.400;12.486;2023-04-25T09:58:34;9.32;;;2.88;;
13244;SDS011;6689;53.400;12.486;2023-04-25T10:01:03;9.70;;;2.75;;
13244;SDS011;6689;53.400;12.486;2023-04-25T10:03:32;13.85;;;3.15;;
13244;SDS011;6689;53.400;12.486;2023-04-25T10:06:00;13.15;;;3.58;;
13244;SDS011;6689;53.400;12.486;2023-04-25T10:08:30;9.07;;;3.42;;
13244;SDS011;6689;53.400;12.486;2023-04-25T10:11:01;13.80;;;3.80;;
13244;SDS011;6689;53.400;12.486;2023-04-25T10:13:30;10.82;;;2.83;;
13244;SDS011;6689;53.400;12.486;2023-04-25T10:15:58;11.23;;;3.67;;
13244;SDS011;6689;53.400;12.486;2023-04-25T10:18:26;10.38;;;3.22;;
13244;SDS011;6689;53.400;12.486;2023-04-25T10:20:54;11.43;;;3.15;;
13244;SDS011;6689;53.400;12.486;2023-04-25T10:23:22;12.93;;;3.70;;
13244;SDS011;6689;53.400;12.486;2023-04-25T10:25:50;14.05;;;3.45;;
13244;SDS011;6689;53.400;12.486;2023-04-25T10:28:20;14.57;;;3.20;;
13244;SDS011;6689;53.400;12.486;2023-04-25T10:30:59;13.00;;;3.15;;
13244;SDS011;6689;53.400;12.486;2023-04-25T10:33:34;9.38;;;3.95;;
13244;SDS011;6689;53.400;12.486;2023-04-25T10:36:09;8.38;;;2.75;;
13244;SDS011;6689;53.400;12.486;2023-04-25T10:38:37;8.07;;;2.47;;
13244;SDS011;6689;53.400;12.486;2023-04-25T10:41:05;9.85;;;2.95;;
13244;SDS011;6689;53.400;12.486;2023-04-25T10:43:37;7.80;;;2.83;;
13244;SDS011;6689;53.400;12.486;2023-04-25T10:46:15;12.15;;;3.72;;
13244;SDS011;6689;53.400;12.486;2023-04-25T10:48:45;9.10;;;3.20;;
13244;SDS011;6689;53.400;12.486;2023-04-25T10:51:18;11.55;;;3.25;;
13244;SDS011;6689;53.400;12.486;2023-04-25T10:53:56;9.30;;;2.97;;
13244;SDS011;6689;53.400;12.486;2023-04-25T10:56:25;11.20;;;3.10;;
13244;SDS011;6689;53.400;12.486;2023-04-25T10:59:07;14.85;;;3.72;;
13244;SDS011;6689;53.400;12.486;2023-04-25T11:01:37;9.30;;;3.25;;
13244;SDS011;6689;53.400;12.486;2023-04-25T11:04:06;8.82;;;3.30;;
13244;SDS011;6689;53.400;12.486;2023-04-25T11:06:50;10.43;;;2.92;;
13244;SDS011;6689;53.400;12.486;2023-04-25T11:09:29;11.50;;;3.42;;
13244;SDS011;6689;53.400;12.486;2023-04-25T11:11:59;9.63;;;3.30;;
13244;SDS011;6689;53.400;12.486;2023-04-25T11:14:28;10.70;;;3.17;;
13244;SDS011;6689;53.400;12.486;2023-04-25T11:16:56;7.63;;;2.50;;
13244;SDS011;6689;53.400;12.486;2023-04-25T11:19:24;10.98;;;2.63;;
13244;SDS011;6689;53.400;12.486;2023-04-25T11:21:54;11.82;;;3.10;;
13244;SDS011;6689;53.400;12.486;2023-04-25T11:24:25;8.95;;;2.38;;
13244;SDS011;6689;53.400;12.486;2023-04-25T11:26:53;9.48;;;2.60;;
13244;SDS011;6689;53.400;12.486;2023-04-25T11:29:21;11.55;;;2.78;;
13244;SDS011;6689;53.400;12.486;2023-04-25T11:31:50;10.20;;;2.65;;
13244;SDS011;6689;53.400;12.486;2023-04-25T11:34:18;8.07;;;2.58;;
13244;SDS011;6689;53.400;12.486;2023-04-25T11:36:46;13.15;;;2.80;;
13244;SDS011;6689;53.400;12.486;2023-04-25T11:39:13;10.10;;;2.95;;
13244;SDS011;6689;53.400;12.486;2023-04-25T11:41:41;11.65;;;2.78;;
13244;SDS011;6689;53.400;12.486;2023-04-25T11:44:11;9.02;;;1.90;;
13244;SDS011;6689;53.400;12.486;2023-04-25T11:46:38;9.90;;;2.88;;
13244;SDS011;6689;53.400;12.486;2023-04-25T11:49:07;7.03;;;1.98;;
13244;SDS011;6689;53.400;12.486;2023-04-25T11:51:38;11.43;;;3.15;;
13244;SDS011;6689;53.400;12.486;2023-04-25T11:54:06;7.82;;;2.65;;
13244;SDS011;6689;53.400;12.486;2023-04-25T11:56:34;6.70;;;2.13;;
13244;SDS011;6689;53.400;12.486;2023-04-25T11:59:02;8.68;;;2.42;;
13244;SDS011;6689;53.400;12.486;2023-04-25T12:01:30;8.73;;;2.92;;
13244;SDS011;6689;53.400;12.486;2023-04-25T12:04:09;8.45;;;2.03;;
13244;SDS011;6689;53.400;12.486;2023-04-25T12:06:41;5.05;;;1.75;;
13244;SDS011;6689;53.400;12.486;2023-04-25T12:09:11;6.60;;;2.40;;
13244;SDS011;6689;53.400;12.486;2023-04-25T12:11:40;7.95;;;1.90;;
13244;SDS011;6689;53.400;12.486;2023-04-25T12:14:10;5.13;;;2.00;;
13244;SDS011;6689;53.400;12.486;2023-04-25T12:16:41;4.72;;;2.00;;
13244;SDS011;6689;53.400;12.486;2023-04-25T12:19:13;8.27;;;2.13;;
13244;SDS011;6689;53.400;12.486;2023-04-25T12:21:41;12.63;;;2.20;;
13244;SDS011;6689;53.400;12.486;2023-04-25T12:24:12;9.43;;;3.47;;
13244;SDS011;6689;53.400;12.486;2023-04-25T12:26:50;11.50;;;2.63;;
13244;SDS011;6689;53.400;12.486;2023-04-25T12:29:18;9.60;;;2.22;;
13244;SDS011;6689;53.400;12.486;2023-04-25T12:31:47;6.57;;;1.98;;
13244;SDS011;6689;53.400;12.486;2023-04-25T12:34:16;6.78;;;1.98;;
13244;SDS011;6689;53.400;12.486;2023-04-25T12:36:44;7.28;;;1.90;;
13244;SDS011;6689;53.400;12.486;2023-04-25T12:39:15;9.95;;;2.05;;
13244;SDS011;6689;53.400;12.486;2023-04-25T12:41:42;5.78;;;1.90;;
13244;SDS011;6689;53.400;12.486;2023-04-25T12:44:10;5.18;;;2.28;;
13244;SDS011;6689;53.400;12.486;2023-04-25T12:46:38;4.50;;;1.52;;
13244;SDS011;6689;53.400;12.486;2023-04-25T12:49:06;4.97;;;1.60;;
13244;SDS011;6689;53.400;12.486;2023-04-25T12:51:35;5.70;;;1.95;;
13244;SDS011;6689;53.400;12.486;2023-04-25T12:54:03;5.90;;;1.83;;
13244;SDS011;6689;53.400;12.486;2023-04-25T12:56:32;6.28;;;1.90;;
13244;SDS011;6689;53.400;12.486;2023-04-25T12:58:59;7.18;;;3.22;;
13244;SDS011;6689;53.400;12.486;2023-04-25T13:01:28;9.55;;;2.67;;
13244;SDS011;6689;53.400;12.486;2023-04-25T13:03:55;6.47;;;2.13;;
13244;SDS011;6689;53.400;12.486;2023-04-25T13:06:23;7.80;;;2.50;;
13244;SDS011;6689;53.400;12.486;2023-04-25T13:08:52;6.07;;;2.05;;
13244;SDS011;6689;53.400;12.486;2023-04-25T13:11:20;7.10;;;3.05;;
13244;SDS011;6689;53.400;12.486;2023-04-25T13:13:47;6.95;;;1.73;;
13244;SDS011;6689;53.400;12.486;2023-04-25T13:16:15;6.47;;;1.70;;
13244;SDS011;6689;53.400;12.486;2023-04-25T13:18:42;7.40;;;1.90;;
13244;SDS011;6689;53.400;12.486;2023-04-25T13:21:10;9.80;;;3.70;;
13244;SDS011;6689;53.400;12.486;2023-04-25T13:23:39;5.70;;;1.85;;
13244;SDS011;6689;53.400;12.486;2023-04-25T13:26:09;12.10;;;2.67;;
13244;SDS011;6689;53.400;12.486;2023-04-25T13:28:36;8.05;;;2.22;;
13244;SDS011;6689;53.400;12.486;2023-04-25T13:31:05;8.65;;;2.00;;
13244;SDS011;6689;53.400;12.486;2023-04-25T13:33:33;4.90;;;1.70;;
13244;SDS011;6689;53.400;12.486;2023-04-25T13:36:00;9.35;;;1.75;;
13244;SDS011;6689;53.400;12.486;2023-04-25T13:38:28;9.40;;;2.67;;
13244;SDS011;6689;53.400;12.486;2023-04-25T13:40:56;6.07;;;1.80;;
13244;SDS011;6689;53.400;12.486;2023-04-25T13:43:25;5.65;;;2.17;;
13244;SDS011;6689;53.400;12.486;2023-04-25T13:45:54;8.20;;;2.20;;
13244;SDS011;6689;53.400;12.486;2023-04-25T13:48:22;7.60;;;2.95;;
13244;SDS011;6689;53.400;12.486;2023-04-25T13:50:50;8.90;;;2.13;;
13244;SDS011;6689;53.400;12.486;2023-04-25T13:53:17;8.63;;;2.00;;
13244;SDS011;6689;53.400;12.486;2023-04-25T13:55:47;6.38;;;2.45;;
13244;SDS011;6689;53.400;12.486;2023-04-25T13:58:15;5.93;;;2.67;;
13244;SDS011;6689;53.400;12.486;2023-04-25T14:00:44;7.93;;;1.70;;
13244;SDS011;6689;53.400;12.486;2023-04-25T14:03:11;11.07;;;2.10;;
13244;SDS011;6689;53.400;12.486;2023-04-25T14:05:39;10.50;;;2.42;;
13244;SDS011;6689;53.400;12.486;2023-04-25T14:08:07;4.63;;;1.42;;
13244;SDS011;6689;53.400;12.486;2023-04-25T14:10:36;6.60;;;1.90;;
13244;SDS011;6689;53.400;12.486;2023-04-25T14:13:04;5.40;;;1.75;;
13244;SDS011;6689;53.400;12.486;2023-04-25T14:15:32;5.07;;;1.63;;
13244;SDS011;6689;53.400;12.486;2023-04-25T14:18:01;7.25;;;1.33;;
13244;SDS011;6689;53.400;12.486;2023-04-25T14:20:32;3.88;;;1.77;;
13244;SDS011;6689;53.400;12.486;2023-04-25T14:22:59;4.65;;;1.30;;
13244;SDS011;6689;53.400;12.486;2023-04-25T14:25:33;5.25;;;1.30;;
13244;SDS011;6689;53.400;12.486;2023-04-25T14:28:02;6.53;;;1.42;;
13244;SDS011;6689;53.400;12.486;2023-04-25T14:30:30;7.90;;;1.80;;
13244;SDS011;6689;53.400;12.486;2023-04-25T14:32:57;6.13;;;1.55;;
13244;SDS011;6689;53.400;12.486;2023-04-25T14:35:29;4.72;;;1.20;;
13244;SDS011;6689;53.400;12.486;2023-04-25T14:37:56;4.35;;;1.50;;
13244;SDS011;6689;53.400;12.486;2023-04-25T14:40:24;7.25;;;1.42;;
13244;SDS011;6689;53.400;12.486;2023-04-25T14:42:52;3.70;;;1.17;;
13244;SDS011;6689;53.400;12.486;2023-04-25T14:45:19;7.07;;;1.50;;
13244;SDS011;6689;53.400;12.486;2023-04-25T14:47:47;6.00;;;1.20;;
13244;SDS011;6689;53.400;12.486;2023-04-25T14:50:15;6.95;;;1.65;;